sensor_id;sensor_type;location;lat;lon;timestamp;pressure;altitude;pressure_sealevel;temperature;humidity
31403;BME280;18039;52.188;21.024;2023-02-12T00:01:21;78598.28;;;-141.45;81.47
31403;BME280;18039;52.188;21.024;2023-02-12T00:03:48;78614.50;;;-141.45;80.94
31403;BME280;18039;52.188;21.024;2023-02-12T00:06:15;78608.44;;;-141.45;80.51
31403;BME280;18039;52.188;21.024;2023-02-12T00:08:42;78608.44;;;-141.45;81.03
31403;BME280;18039;52.188;21.024;2023-02-12T00:11:15;78616.53;;;-141.45;80.03
31403;BME280;18039;52.188;21.024;2023-02-12T00:13:42;78644.94;;;-141.45;80.87
31403;BME280;18039;52.188;21.024;2023-02-12T00:16:12;78644.94;;;-141.45;80.94
31403;BME280;18039;52.188;21.024;2023-02-12T00:18:40;78653.03;;;-141.45;81.36
31403;BME280;18039;52.188;21.024;2023-02-12T00:21:08;78665.22;;;-141.45;82.12
31403;BME280;18039;52.188;21.024;2023-02-12T00:23:37;78673.31;;;-141.45;82.40
31403;BME280;18039;52.188;21.024;2023-02-12T00:26:06;78685.50;;;-141.45;82.36
31403;BME280;18039;52.188;21.024;2023-02-12T00:28:34;78681.44;;;-141.45;81.63
31403;BME280;18039;52.188;21.024;2023-02-12T00:33:33;78693.63;;;-141.45;79.79
31403;BME280;18039;52.188;21.024;2023-02-12T00:36:01;78701.72;;;-141.45;79.40
31403;BME280;18039;52.188;21.024;2023-02-12T00:38:28;78695.63;;;-141.45;79.81
31403;BME280;18039;52.188;21.024;2023-02-12T00:40:55;78701.72;;;-141.45;80.17
31403;BME280;18039;52.188;21.024;2023-02-12T00:43:22;78709.84;;;-141.45;80.42
31403;BME280;18039;52.188;21.024;2023-02-12T00:45:49;78713.91;;;-141.45;80.46
31403;BME280;18039;52.188;21.024;2023-02-12T00:48:16;78717.94;;;-141.45;80.54
31403;BME280;18039;52.188;21.024;2023-02-12T00:50:45;78722.00;;;-141.45;80.86
31403;BME280;18039;52.188;21.024;2023-02-12T00:53:12;78722.00;;;-141.45;80.73
31403;BME280;18039;52.188;21.024;2023-02-12T00:55:40;78726.06;;;-141.45;80.67
31403;BME280;18039;52.188;21.024;2023-02-12T00:58:08;78717.94;;;-141.45;80.14
31403;BME280;18039;52.188;21.024;2023-02-12T01:00:35;78717.94;;;-141.45;79.80
31403;BME280;18039;52.188;21.024;2023-02-12T01:03:02;78730.13;;;-141.45;80.17
31403;BME280;18039;52.188;21.024;2023-02-12T01:05:31;78738.22;;;-141.45;80.67
31403;BME280;18039;52.188;21.024;2023-02-12T01:07:59;78746.34;;;-141.45;80.48
31403;BME280;18039;52.188;21.024;2023-02-12T01:10:26;78740.25;;;-141.45;80.62
31403;BME280;18039;52.188;21.024;2023-02-12T01:12:54;78746.34;;;-141.45;80.41
31403;BME280;18039;52.188;21.024;2023-02-12T01:15:22;78750.41;;;-141.45;79.43
31403;BME280;18039;52.188;21.024;2023-02-12T01:17:53;78754.47;;;-141.45;78.69
31403;BME280;18039;52.188;21.024;2023-02-12T01:20:22;78766.63;;;-141.45;79.17
31403;BME280;18039;52.188;21.024;2023-02-12T01:22:49;78770.69;;;-141.45;79.88
31403;BME280;18039;52.188;21.024;2023-02-12T01:25:17;78778.81;;;-141.45;79.67
31403;BME280;18039;52.188;21.024;2023-02-12T01:27:46;78774.75;;;-141.45;79.71
31403;BME280;18039;52.188;21.024;2023-02-12T01:30:14;78782.84;;;-141.45;79.92
31403;BME280;18039;52.188;21.024;2023-02-12T01:32:42;78795.03;;;-141.45;79.83
31403;BME280;18039;52.188;21.024;2023-02-12T01:35:10;78795.03;;;-141.45;79.59
31403;BME280;18039;52.188;21.024;2023-02-12T01:37:39;78784.88;;;-141.45;78.92
31403;BME280;18039;52.188;21.024;2023-02-12T01:40:07;78788.94;;;-141.45;78.81
31403;BME280;18039;52.188;21.024;2023-02-12T01:42:34;78788.94;;;-141.45;79.27
31403;BME280;18039;52.188;21.024;2023-02-12T01:47:40;78799.09;;;-141.45;78.79
31403;BME280;18039;52.188;21.024;2023-02-12T01:50:10;78803.16;;;-141.45;78.78
31403;BME280;18039;52.188;21.024;2023-02-12T01:52:42;78813.28;;;-141.45;79.21
31403;BME280;18039;52.188;21.024;2023-02-12T01:55:13;78799.09;;;-141.45;78.16
31403;BME280;18039;52.188;21.024;2023-02-12T01:57:42;78811.25;;;-141.45;77.50
31403;BME280;18039;52.188;21.024;2023-02-12T02:00:15;78819.38;;;-141.45;77.22
31403;BME280;18039;52.188;21.024;2023-02-12T02:02:45;78823.44;;;-141.45;77.23
31403;BME280;18039;52.188;21.024;2023-02-12T02:05:14;78827.47;;;-141.45;77.57
31403;BME280;18039;52.188;21.024;2023-02-12T02:07:44;78839.66;;;-141.45;77.62
31403;BME280;18039;52.188;21.024;2023-02-12T02:10:11;78839.66;;;-141.45;77.65
31403;BME280;18039;52.188;21.024;2023-02-12T02:12:38;78835.59;;;-141.45;78.12
31403;BME280;18039;52.188;21.024;2023-02-12T02:15:25;78843.72;;;-141.45;78.06
31403;BME280;18039;52.188;21.024;2023-02-12T02:27:04;78861.97;;;-141.45;76.32
31403;BME280;18039;52.188;21.024;2023-02-12T02:30:20;78880.22;;;-141.45;76.52
31403;BME280;18039;52.188;21.024;2023-02-12T02:33:09;78884.28;;;-141.45;76.56
31403;BME280;18039;52.188;21.024;2023-02-12T02:35:52;78888.34;;;-141.45;76.87
31403;BME280;18039;52.188;21.024;2023-02-12T02:38:32;78892.41;;;-141.45;77.07
31403;BME280;18039;52.188;21.024;2023-02-12T02:43:32;78908.63;;;-141.45;77.07
31403;BME280;18039;52.188;21.024;2023-02-12T02:46:06;78908.63;;;-141.45;76.83
31403;BME280;18039;52.188;21.024;2023-02-12T02:48:39;78894.44;;;-141.45;75.45
31403;BME280;18039;52.188;21.024;2023-02-12T02:51:11;78908.63;;;-141.45;76.09
31403;BME280;18039;52.188;21.024;2023-02-12T02:53:48;78908.63;;;-141.45;75.70
31403;BME280;18039;52.188;21.024;2023-02-12T02:56:19;78920.78;;;-141.45;75.66
31403;BME280;18039;52.188;21.024;2023-02-12T02:58:58;78908.63;;;-141.45;75.80
31403;BME280;18039;52.188;21.024;2023-02-12T03:01:32;78928.91;;;-141.45;75.61
31403;BME280;18039;52.188;21.024;2023-02-12T03:04:06;78930.94;;;-141.45;75.65
31403;BME280;18039;52.188;21.024;2023-02-12T03:06:42;78939.06;;;-141.45;75.53
31403;BME280;18039;52.188;21.024;2023-02-12T03:11:46;78969.47;;;-141.45;76.07
31403;BME280;18039;52.188;21.024;2023-02-12T03:14:21;78961.38;;;-141.45;75.13
31403;BME280;18039;52.188;21.024;2023-02-12T03:17:02;78965.41;;;-141.45;74.98
31403;BME280;18039;52.188;21.024;2023-02-12T03:19:41;78969.47;;;-141.45;74.65
31403;BME280;18039;52.188;21.024;2023-02-12T03:22:14;78969.47;;;-141.45;74.35
31403;BME280;18039;52.188;21.024;2023-02-12T03:24:57;78967.44;;;-141.45;73.88
31403;BME280;18039;52.188;21.024;2023-02-12T03:27:37;78973.53;;;-141.45;74.74
31403;BME280;18039;52.188;21.024;2023-02-12T03:30:07;78989.75;;;-141.45;75.59
31403;BME280;18039;52.188;21.024;2023-02-12T03:37:40;78997.88;;;-141.45;75.59
31403;BME280;18039;52.188;21.024;2023-02-12T03:40:49;78995.84;;;-141.45;75.50
31403;BME280;18039;52.188;21.024;2023-02-12T03:43:24;79006.00;;;-141.45;75.12
31403;BME280;18039;52.188;21.024;2023-02-12T03:46:23;79016.13;;;-141.45;74.78
31403;BME280;18039;52.188;21.024;2023-02-12T03:49:00;79018.16;;;-141.45;74.04
31403;BME280;18039;52.188;21.024;2023-02-12T03:51:34;79018.16;;;-141.45;73.13
31403;BME280;18039;52.188;21.024;2023-02-12T03:54:04;79024.25;;;-141.45;73.67
31403;BME280;18039;52.188;21.024;2023-02-12T03:56:37;79032.38;;;-141.45;73.57
31403;BME280;18039;52.188;21.024;2023-02-12T03:59:06;79034.38;;;-141.45;74.48
31403;BME280;18039;52.188;21.024;2023-02-12T04:01:34;79046.56;;;-141.45;74.93
31403;BME280;18039;52.188;21.024;2023-02-12T04:04:03;79046.56;;;-141.45;74.58
31403;BME280;18039;52.188;21.024;2023-02-12T04:06:31;79046.56;;;-141.45;74.52
31403;BME280;18039;52.188;21.024;2023-02-12T04:09:02;79046.56;;;-141.45;74.19
31403;BME280;18039;52.188;21.024;2023-02-12T04:17:08;79066.84;;;-141.45;74.90
31403;BME280;18039;52.188;21.024;2023-02-12T04:23:00;79064.81;;;-141.45;74.84
31403;BME280;18039;52.188;21.024;2023-02-12T04:34:09;79091.19;;;-141.45;74.25
31403;BME280;18039;52.188;21.024;2023-02-12T04:36:55;79099.31;;;-141.45;74.78
31403;BME280;18039;52.188;21.024;2023-02-12T04:39:29;79095.25;;;-141.45;74.71
31403;BME280;18039;52.188;21.024;2023-02-12T04:41:58;79087.13;;;-141.45;74.41
31403;BME280;18039;52.188;21.024;2023-02-12T04:44:29;79095.25;;;-141.45;74.56
31403;BME280;18039;52.188;21.024;2023-02-12T04:46:57;79087.13;;;-141.45;75.10
31403;BME280;18039;52.188;21.024;2023-02-12T04:49:25;79095.25;;;-141.45;75.20
31403;BME280;18039;52.188;21.024;2023-02-12T04:51:52;79103.38;;;-141.45;75.44
31403;BME280;18039;52.188;21.024;2023-02-12T04:54:20;79103.38;;;-141.45;75.51
31403;BME280;18039;52.188;21.024;2023-02-12T04:56:48;79103.38;;;-141.45;75.28
31403;BME280;18039;52.188;21.024;2023-02-12T04:59:16;79111.47;;;-141.45;75.25
31403;BME280;18039;52.188;21.024;2023-02-12T05:01:43;79115.53;;;-141.45;75.53
31403;BME280;18039;52.188;21.024;2023-02-12T05:04:14;79125.69;;;-141.45;75.25
31403;BME280;18039;52.188;21.024;2023-02-12T05:06:42;79127.72;;;-141.45;75.26
31403;BME280;18039;52.188;21.024;2023-02-12T05:09:14;79133.78;;;-141.45;75.62
31403;BME280;18039;52.188;21.024;2023-02-12T05:11:41;79143.94;;;-141.45;75.20
31403;BME280;18039;52.188;21.024;2023-02-12T05:14:09;79141.91;;;-141.45;75.75
31403;BME280;18039;52.188;21.024;2023-02-12T05:16:37;79148.00;;;-141.45;75.76
31403;BME280;18039;52.188;21.024;2023-02-12T05:19:04;79152.06;;;-141.45;75.43
31403;BME280;18039;52.188;21.024;2023-02-12T05:21:31;79156.09;;;-141.45;75.35
31403;BME280;18039;52.188;21.024;2023-02-12T05:24:00;79158.13;;;-141.45;75.33
31403;BME280;18039;52.188;21.024;2023-02-12T05:26:28;79166.25;;;-141.45;75.76
31403;BME280;18039;52.188;21.024;2023-02-12T05:28:56;79170.31;;;-141.45;76.18
31403;BME280;18039;52.188;21.024;2023-02-12T05:31:23;79172.34;;;-141.45;75.67
31403;BME280;18039;52.188;21.024;2023-02-12T05:33:51;79180.44;;;-141.45;75.81
31403;BME280;18039;52.188;21.024;2023-02-12T05:36:22;79192.63;;;-141.45;75.85
31403;BME280;18039;52.188;21.024;2023-02-12T05:38:50;79184.50;;;-141.45;75.64
31403;BME280;18039;52.188;21.024;2023-02-12T05:41:21;79192.63;;;-141.45;76.13
31403;BME280;18039;52.188;21.024;2023-02-12T05:43:49;79192.63;;;-141.45;76.08
31403;BME280;18039;52.188;21.024;2023-02-12T05:46:18;79200.72;;;-141.45;76.17
31403;BME280;18039;52.188;21.024;2023-02-12T05:48:46;79200.72;;;-141.45;76.62
31403;BME280;18039;52.188;21.024;2023-02-12T05:51:15;79204.78;;;-141.45;76.34
31403;BME280;18039;52.188;21.024;2023-02-12T05:53:43;79196.69;;;-141.45;75.69
31403;BME280;18039;52.188;21.024;2023-02-12T05:58:37;79212.91;;;-141.45;76.33
31403;BME280;18039;52.188;21.024;2023-02-12T06:01:12;79216.97;;;-141.45;75.67
31403;BME280;18039;52.188;21.024;2023-02-12T06:03:40;79225.09;;;-141.45;75.29
31403;BME280;18039;52.188;21.024;2023-02-12T06:06:07;79229.13;;;-141.45;74.40
31403;BME280;18039;52.188;21.024;2023-02-12T06:08:35;79241.31;;;-141.45;74.54
31403;BME280;18039;52.188;21.024;2023-02-12T06:11:05;79251.44;;;-141.45;75.29
31403;BME280;18039;52.188;21.024;2023-02-12T06:13:33;79257.53;;;-141.45;74.82
31403;BME280;18039;52.188;21.024;2023-02-12T06:16:00;79247.41;;;-141.45;75.09
31403;BME280;18039;52.188;21.024;2023-02-12T06:18:28;79255.50;;;-141.45;75.56
31403;BME280;18039;52.188;21.024;2023-02-12T06:20:55;79257.53;;;-141.45;75.21
31403;BME280;18039;52.188;21.024;2023-02-12T06:23:23;79257.53;;;-141.45;75.06
31403;BME280;18039;52.188;21.024;2023-02-12T06:25:55;79265.66;;;-141.45;74.56
31403;BME280;18039;52.188;21.024;2023-02-12T06:28:23;79261.59;;;-141.45;74.20
31403;BME280;18039;52.188;21.024;2023-02-12T06:30:50;79265.66;;;-141.45;73.76
31403;BME280;18039;52.188;21.024;2023-02-12T06:33:18;79269.72;;;-141.45;73.78
31403;BME280;18039;52.188;21.024;2023-02-12T06:35:45;79285.94;;;-141.45;74.48
31403;BME280;18039;52.188;21.024;2023-02-12T06:38:12;79290.00;;;-141.45;74.31
31403;BME280;18039;52.188;21.024;2023-02-12T06:40:40;79283.91;;;-141.45;74.45
31403;BME280;18039;52.188;21.024;2023-02-12T06:43:07;79277.81;;;-141.45;75.09
31403;BME280;18039;52.188;21.024;2023-02-12T06:45:34;79290.00;;;-141.45;74.64
31403;BME280;18039;52.188;21.024;2023-02-12T06:48:01;79273.78;;;-141.45;75.07
31403;BME280;18039;52.188;21.024;2023-02-12T06:50:29;79277.81;;;-141.45;75.21
31403;BME280;18039;52.188;21.024;2023-02-12T06:52:57;79273.78;;;-141.45;74.76
31403;BME280;18039;52.188;21.024;2023-02-12T06:55:24;79261.59;;;-141.45;75.20
31403;BME280;18039;52.188;21.024;2023-02-12T06:57:51;79261.59;;;-141.45;75.08
31403;BME280;18039;52.188;21.024;2023-02-12T07:00:19;79261.59;;;-141.45;75.04
31403;BME280;18039;52.188;21.024;2023-02-12T07:02:52;79253.47;;;-141.45;75.03
31403;BME280;18039;52.188;21.024;2023-02-12T07:05:19;79247.41;;;-141.45;74.87
31403;BME280;18039;52.188;21.024;2023-02-12T07:07:46;79253.47;;;-141.45;73.47
31403;BME280;18039;52.188;21.024;2023-02-12T07:10:13;79253.47;;;-141.45;73.50
31403;BME280;18039;52.188;21.024;2023-02-12T07:12:40;79261.59;;;-141.45;73.42
31403;BME280;18039;52.188;21.024;2023-02-12T07:15:08;79257.53;;;-141.45;73.61
31403;BME280;18039;52.188;21.024;2023-02-12T07:17:35;79255.50;;;-141.45;73.92
31403;BME280;18039;52.188;21.024;2023-02-12T07:20:03;79247.41;;;-141.45;73.83
31403;BME280;18039;52.188;21.024;2023-02-12T07:22:34;79257.53;;;-141.45;73.39
31403;BME280;18039;52.188;21.024;2023-02-12T07:25:01;79257.53;;;-141.45;73.13
31403;BME280;18039;52.188;21.024;2023-02-12T07:27:29;79259.56;;;-141.45;73.16
31403;BME280;18039;52.188;21.024;2023-02-12T07:29:56;79257.53;;;-141.45;73.13
31403;BME280;18039;52.188;21.024;2023-02-12T07:32:23;79259.56;;;-141.45;73.19
31403;BME280;18039;52.188;21.024;2023-02-12T07:34:50;79245.38;;;-141.45;73.13
31403;BME280;18039;52.188;21.024;2023-02-12T07:37:17;79241.31;;;-141.45;72.88
31403;BME280;18039;52.188;21.024;2023-02-12T07:39:48;79237.25;;;-141.45;73.26
31403;BME280;18039;52.188;21.024;2023-02-12T07:42:16;79229.13;;;-141.45;73.50
31403;BME280;18039;52.188;21.024;2023-02-12T07:44:48;79229.13;;;-141.45;73.49
31403;BME280;18039;52.188;21.024;2023-02-12T07:47:15;79221.03;;;-141.45;74.05
31403;BME280;18039;52.188;21.024;2023-02-12T07:49:42;79208.84;;;-141.45;74.30
31403;BME280;18039;52.188;21.024;2023-02-12T07:52:09;79212.91;;;-141.45;73.89
31403;BME280;18039;52.188;21.024;2023-02-12T07:54:39;79212.91;;;-141.45;72.08
31403;BME280;18039;52.188;21.024;2023-02-12T07:57:06;79212.91;;;-141.45;72.12
31403;BME280;18039;52.188;21.024;2023-02-12T07:59:33;79204.78;;;-141.45;72.05
31403;BME280;18039;52.188;21.024;2023-02-12T08:02:00;79208.84;;;-141.45;71.90
31403;BME280;18039;52.188;21.024;2023-02-12T08:04:27;79208.84;;;-141.45;72.46
31403;BME280;18039;52.188;21.024;2023-02-12T08:06:55;79198.72;;;-141.45;71.70
31403;BME280;18039;52.188;21.024;2023-02-12T08:09:25;79192.63;;;-141.45;71.90
31403;BME280;18039;52.188;21.024;2023-02-12T08:11:52;79184.50;;;-141.45;71.82
31403;BME280;18039;52.188;21.024;2023-02-12T08:14:20;79180.44;;;-141.45;72.08
31403;BME280;18039;52.188;21.024;2023-02-12T08:16:49;79180.44;;;-141.45;71.21
31403;BME280;18039;52.188;21.024;2023-02-12T08:19:16;79202.75;;;-141.45;68.96
31403;BME280;18039;52.188;21.024;2023-02-12T08:21:54;79200.72;;;-141.45;69.47
31403;BME280;18039;52.188;21.024;2023-02-12T08:24:22;79200.72;;;-141.45;70.26
31403;BME280;18039;52.188;21.024;2023-02-12T08:26:50;79192.63;;;-141.45;70.76
31403;BME280;18039;52.188;21.024;2023-02-12T08:29:23;79198.72;;;-141.45;69.93
31403;BME280;18039;52.188;21.024;2023-02-12T08:31:58;79188.56;;;-141.45;68.29
31403;BME280;18039;52.188;21.024;2023-02-12T08:34:28;79196.69;;;-141.45;68.15
31403;BME280;18039;52.188;21.024;2023-02-12T08:36:56;79206.81;;;-141.45;68.52
31403;BME280;18039;52.188;21.024;2023-02-12T08:39:26;79204.78;;;-141.45;69.47
31403;BME280;18039;52.188;21.024;2023-02-12T08:41:56;79196.69;;;-141.45;69.72
31403;BME280;18039;52.188;21.024;2023-02-12T08:44:23;79196.69;;;-141.45;69.17
31403;BME280;18039;52.188;21.024;2023-02-12T08:46:51;79196.69;;;-141.45;68.96
31403;BME280;18039;52.188;21.024;2023-02-12T08:49:21;79192.63;;;-141.45;69.52
31403;BME280;18039;52.188;21.024;2023-02-12T08:51:51;79190.59;;;-141.45;70.08
31403;BME280;18039;52.188;21.024;2023-02-12T08:54:24;79182.47;;;-141.45;70.11
31403;BME280;18039;52.188;21.024;2023-02-12T08:56:59;79166.25;;;-141.45;70.25
31403;BME280;18039;52.188;21.024;2023-02-12T08:59:27;79158.13;;;-141.45;69.14
31403;BME280;18039;52.188;21.024;2023-02-12T09:01:54;79156.09;;;-141.45;68.10
31403;BME280;18039;52.188;21.024;2023-02-12T09:04:24;79156.09;;;-141.45;68.83
31403;BME280;18039;52.188;21.024;2023-02-12T09:06:52;79156.09;;;-141.45;69.06
31403;BME280;18039;52.188;21.024;2023-02-12T09:09:19;79143.94;;;-141.45;68.69
31403;BME280;18039;52.188;21.024;2023-02-12T09:11:47;79139.88;;;-141.45;68.94
31403;BME280;18039;52.188;21.024;2023-02-12T09:14:16;79135.81;;;-141.45;68.61
31403;BME280;18039;52.188;21.024;2023-02-12T09:16:44;79139.88;;;-141.45;68.43
31403;BME280;18039;52.188;21.024;2023-02-12T09:19:12;79152.06;;;-141.45;68.28
31403;BME280;18039;52.188;21.024;2023-02-12T09:21:40;79162.19;;;-141.45;69.09
31403;BME280;18039;52.188;21.024;2023-02-12T09:24:08;79168.28;;;-141.45;69.49
31403;BME280;18039;52.188;21.024;2023-02-12T09:26:36;79164.22;;;-141.45;68.57
31403;BME280;18039;52.188;21.024;2023-02-12T09:29:03;79180.44;;;-141.45;69.64
31403;BME280;18039;52.188;21.024;2023-02-12T09:31:31;79176.38;;;-141.45;70.21
31403;BME280;18039;52.188;21.024;2023-02-12T09:34:01;79164.22;;;-141.45;70.48
31403;BME280;18039;52.188;21.024;2023-02-12T09:36:29;79150.03;;;-141.45;70.27
31403;BME280;18039;52.188;21.024;2023-02-12T09:38:57;79148.00;;;-141.45;69.38
31403;BME280;18039;52.188;21.024;2023-02-12T09:52:24;79156.09;;;-141.45;68.78
31403;BME280;18039;52.188;21.024;2023-02-12T09:54:52;79156.09;;;-141.45;68.25
31403;BME280;18039;52.188;21.024;2023-02-12T09:57:25;79160.16;;;-141.45;68.18
31403;BME280;18039;52.188;21.024;2023-02-12T10:00:03;79139.88;;;-141.45;68.75
31403;BME280;18039;52.188;21.024;2023-02-12T10:02:35;79141.91;;;-141.45;67.56
31403;BME280;18039;52.188;21.024;2023-02-12T10:05:04;79117.56;;;-141.45;67.13
31403;BME280;18039;52.188;21.024;2023-02-12T10:07:39;79115.53;;;-141.45;67.72
31403;BME280;18039;52.188;21.024;2023-02-12T10:13:07;79099.31;;;-141.45;66.88
31403;BME280;18039;52.188;21.024;2023-02-12T10:21:14;79042.50;;;-141.45;65.70
31403;BME280;18039;52.188;21.024;2023-02-12T10:23:56;79050.63;;;-141.45;64.87
31403;BME280;18039;52.188;21.024;2023-02-12T10:26:32;79079.03;;;-141.45;65.99
31403;BME280;18039;52.188;21.024;2023-02-12T10:29:29;79068.88;;;-141.45;65.70
31403;BME280;18039;52.188;21.024;2023-02-12T10:32:28;79066.84;;;-141.45;65.52
31403;BME280;18039;52.188;21.024;2023-02-12T10:34:55;79077.00;;;-141.45;64.83
31403;BME280;18039;52.188;21.024;2023-02-12T10:37:27;79054.69;;;-141.45;65.20
31403;BME280;18039;52.188;21.024;2023-02-12T10:40:05;79026.28;;;-141.45;64.10
31403;BME280;18039;52.188;21.024;2023-02-12T10:42:43;79036.41;;;-141.45;65.15
31403;BME280;18039;52.188;21.024;2023-02-12T10:45:13;79050.63;;;-141.45;64.97
31403;BME280;18039;52.188;21.024;2023-02-12T10:47:41;79034.38;;;-141.45;66.33
31403;BME280;18039;52.188;21.024;2023-02-12T10:52:53;79026.28;;;-141.45;66.05
31403;BME280;18039;52.188;21.024;2023-02-12T10:55:33;79018.16;;;-141.45;65.00
31403;BME280;18039;52.188;21.024;2023-02-12T10:58:03;79010.06;;;-141.45;65.07
31403;BME280;18039;52.188;21.024;2023-02-12T11:00:33;78989.75;;;-141.45;64.26
31403;BME280;18039;52.188;21.024;2023-02-12T11:03:22;78997.88;;;-141.45;64.03
31403;BME280;18039;52.188;21.024;2023-02-12T11:05:48;78985.72;;;-141.45;64.72
31403;BME280;18039;52.188;21.024;2023-02-12T11:11:28;78967.44;;;-141.45;64.88
31403;BME280;18039;52.188;21.024;2023-02-12T11:13:57;78961.38;;;-141.45;65.45
31403;BME280;18039;52.188;21.024;2023-02-12T11:16:42;78959.34;;;-141.45;64.45
31403;BME280;18039;52.188;21.024;2023-02-12T11:19:26;78997.88;;;-141.45;65.42
31403;BME280;18039;52.188;21.024;2023-02-12T11:22:10;78995.84;;;-141.45;65.29
31403;BME280;18039;52.188;21.024;2023-02-12T11:24:40;79001.94;;;-141.45;65.13
31403;BME280;18039;52.188;21.024;2023-02-12T11:27:24;79010.06;;;-141.45;65.11
31403;BME280;18039;52.188;21.024;2023-02-12T11:30:19;78997.88;;;-141.45;66.83
31403;BME280;18039;52.188;21.024;2023-02-12T11:32:47;78993.81;;;-141.45;66.18
31403;BME280;18039;52.188;21.024;2023-02-12T11:35:23;78985.72;;;-141.45;66.74
31403;BME280;18039;52.188;21.024;2023-02-12T11:37:56;78963.41;;;-141.45;67.14
31403;BME280;18039;52.188;21.024;2023-02-12T11:40:26;78945.13;;;-141.45;67.02
31403;BME280;18039;52.188;21.024;2023-02-12T11:42:57;78943.09;;;-141.45;66.27
31403;BME280;18039;52.188;21.024;2023-02-12T11:45:36;78945.13;;;-141.45;66.67
31403;BME280;18039;52.188;21.024;2023-02-12T11:48:26;78957.31;;;-141.45;66.27
31403;BME280;18039;52.188;21.024;2023-02-12T11:50:57;78957.31;;;-141.45;66.07
31403;BME280;18039;52.188;21.024;2023-02-12T11:53:33;78951.22;;;-141.45;67.21
31403;BME280;18039;52.188;21.024;2023-02-12T11:56:05;78947.16;;;-141.45;66.85
31403;BME280;18039;52.188;21.024;2023-02-12T11:58:34;78953.25;;;-141.45;66.14
31403;BME280;18039;52.188;21.024;2023-02-12T12:01:18;78963.41;;;-141.45;65.65
31403;BME280;18039;52.188;21.024;2023-02-12T12:06:28;78961.38;;;-141.45;65.56
31403;BME280;18039;52.188;21.024;2023-02-12T12:09:21;78953.25;;;-141.45;66.57
31403;BME280;18039;52.188;21.024;2023-02-12T12:14:38;78920.78;;;-141.45;66.36
31403;BME280;18039;52.188;21.024;2023-02-12T12:17:33;78908.63;;;-141.45;65.93
31403;BME280;18039;52.188;21.024;2023-02-12T12:20:26;78900.50;;;-141.45;66.77
31403;BME280;18039;52.188;21.024;2023-02-12T12:23:19;78882.25;;;-141.45;66.54
31403;BME280;18039;52.188;21.024;2023-02-12T12:25:55;78876.16;;;-141.45;65.08
31403;BME280;18039;52.188;21.024;2023-02-12T12:31:02;78888.34;;;-141.45;65.35
31403;BME280;18039;52.188;21.024;2023-02-12T12:47:00;78955.28;;;-141.45;66.07
31403;BME280;18039;52.188;21.024;2023-02-12T12:52:21;78941.06;;;-141.45;66.51
31403;BME280;18039;52.188;21.024;2023-02-12T13:00:34;78941.06;;;-141.45;64.94
31403;BME280;18039;52.188;21.024;2023-02-12T13:03:30;78920.78;;;-141.45;65.52
31403;BME280;18039;52.188;21.024;2023-02-12T13:08:59;78908.63;;;-141.45;63.30
31403;BME280;18039;52.188;21.024;2023-02-12T13:11:39;78920.78;;;-141.45;64.29
31403;BME280;18039;52.188;21.024;2023-02-12T13:14:24;78906.59;;;-141.45;65.13
31403;BME280;18039;52.188;21.024;2023-02-12T13:17:04;78886.31;;;-141.45;65.69
31403;BME280;18039;52.188;21.024;2023-02-12T13:25:06;78849.81;;;-141.45;65.08
31403;BME280;18039;52.188;21.024;2023-02-12T13:27:42;78855.88;;;-141.45;64.18
31403;BME280;18039;52.188;21.024;2023-02-12T13:30:20;78872.09;;;-141.45;63.96
31403;BME280;18039;52.188;21.024;2023-02-12T13:35:43;78888.34;;;-141.45;63.73
31403;BME280;18039;52.188;21.024;2023-02-12T13:38:20;78908.63;;;-141.45;65.42
31403;BME280;18039;52.188;21.024;2023-02-12T13:40:52;78900.50;;;-141.45;65.71
31403;BME280;18039;52.188;21.024;2023-02-12T13:48:54;78912.69;;;-141.45;64.84
31403;BME280;18039;52.188;21.024;2023-02-12T13:51:47;78912.69;;;-141.45;65.58
31403;BME280;18039;52.188;21.024;2023-02-12T13:57:08;78928.91;;;-141.45;66.38
31403;BME280;18039;52.188;21.024;2023-02-12T14:04:53;78937.03;;;-141.45;67.87
31403;BME280;18039;52.188;21.024;2023-02-12T14:07:22;78947.16;;;-141.45;67.98
31403;BME280;18039;52.188;21.024;2023-02-12T14:12:36;78945.13;;;-141.45;68.32
31403;BME280;18039;52.188;21.024;2023-02-12T14:15:20;78949.19;;;-141.45;68.82
31403;BME280;18039;52.188;21.024;2023-02-12T14:20:34;78941.06;;;-141.45;68.60
31403;BME280;18039;52.188;21.024;2023-02-12T14:25:36;78961.38;;;-141.45;68.31
31403;BME280;18039;52.188;21.024;2023-02-12T14:30:35;78945.13;;;-141.45;69.50
31403;BME280;18039;52.188;21.024;2023-02-12T14:35:42;78969.47;;;-141.45;71.24
31403;BME280;18039;52.188;21.024;2023-02-12T14:40:39;78985.72;;;-141.45;72.47
31403;BME280;18039;52.188;21.024;2023-02-12T14:48:43;78997.88;;;-141.45;73.20
31403;BME280;18039;52.188;21.024;2023-02-12T14:51:29;79010.06;;;-141.45;73.58
31403;BME280;18039;52.188;21.024;2023-02-12T14:53:59;79001.94;;;-141.45;74.34
31403;BME280;18039;52.188;21.024;2023-02-12T14:56:27;79001.94;;;-141.45;74.61
31403;BME280;18039;52.188;21.024;2023-02-12T14:58:56;79003.97;;;-141.45;74.31
31403;BME280;18039;52.188;21.024;2023-02-12T15:01:32;79014.09;;;-141.45;74.67
31403;BME280;18039;52.188;21.024;2023-02-12T15:04:13;79026.28;;;-141.45;75.12
31403;BME280;18039;52.188;21.024;2023-02-12T15:06:50;79026.28;;;-141.45;74.65
31403;BME280;18039;52.188;21.024;2023-02-12T15:09:31;79030.34;;;-141.45;75.08
31403;BME280;18039;52.188;21.024;2023-02-12T15:12:22;79034.38;;;-141.45;75.48
31403;BME280;18039;52.188;21.024;2023-02-12T15:15:03;79038.44;;;-141.45;75.81
31403;BME280;18039;52.188;21.024;2023-02-12T15:17:33;79046.56;;;-141.45;75.92
31403;BME280;18039;52.188;21.024;2023-02-12T15:20:07;79054.69;;;-141.45;75.83